sensor_id;sensor_type;location;lat;lon;timestamp;P1;durP1;ratioP1;P2;durP2;ratioP2
16484;SDS011;8353;47.856;12.344;2023-04-29T00:02:19;0.60;;;0.40;;
16484;SDS011;8353;47.856;12.344;2023-04-29T00:05:06;1.67;;;0.90;;
16484;SDS011;8353;47.856;12.344;2023-04-29T00:07:54;0.83;;;0.40;;
16484;SDS011;8353;47.856;12.344;2023-04-29T00:10:42;0.60;;;0.30;;
16484;SDS011;8353;47.856;12.344;2023-04-29T00:13:28;0.30;;;0.30;;
16484;SDS011;8353;47.856;12.344;2023-04-29T00:16:15;0.40;;;0.30;;
16484;SDS011;8353;47.856;12.344;2023-04-29T00:19:02;0.33;;;0.33;;
16484;SDS011;8353;47.856;12.344;2023-04-29T00:21:49;1.60;;;0.47;;
16484;SDS011;8353;47.856;12.344;2023-04-29T00:24:37;0.20;;;0.20;;
16484;SDS011;8353;47.856;12.344;2023-04-29T00:27:24;0.40;;;0.40;;
16484;SDS011;8353;47.856;12.344;2023-04-29T00:30:11;0.40;;;0.40;;
16484;SDS011;8353;47.856;12.344;2023-04-29T00:32:58;0.40;;;0.40;;
16484;SDS011;8353;47.856;12.344;2023-04-29T00:35:45;0.50;;;0.30;;
16484;SDS011;8353;47.856;12.344;2023-04-29T00:38:32;0.93;;;0.30;;
16484;SDS011;8353;47.856;12.344;2023-04-29T00:41:20;0.40;;;0.40;;
16484;SDS011;8353;47.856;12.344;2023-04-29T00:44:07;0.30;;;0.30;;
16484;SDS011;8353;47.856;12.344;2023-04-29T00:46:54;1.03;;;0.43;;
16484;SDS011;8353;47.856;12.344;2023-04-29T00:49:41;0.20;;;0.20;;
16484;SDS011;8353;47.856;12.344;2023-04-29T00:52:29;0.30;;;0.30;;
16484;SDS011;8353;47.856;12.344;2023-04-29T00:55:16;0.30;;;0.30;;
16484;SDS011;8353;47.856;12.344;2023-04-29T00:58:04;0.27;;;0.27;;
16484;SDS011;8353;47.856;12.344;2023-04-29T01:00:51;0.30;;;0.30;;
16484;SDS011;8353;47.856;12.344;2023-04-29T01:03:40;0.50;;;0.50;;
16484;SDS011;8353;47.856;12.344;2023-04-29T01:06:28;0.53;;;0.40;;
16484;SDS011;8353;47.856;12.344;2023-04-29T01:09:31;0.30;;;0.30;;
16484;SDS011;8353;47.856;12.344;2023-04-29T01:12:31;0.50;;;0.40;;
16484;SDS011;8353;47.856;12.344;2023-04-29T01:15:27;0.30;;;0.30;;
16484;SDS011;8353;47.856;12.344;2023-04-29T01:18:18;0.30;;;0.30;;
16484;SDS011;8353;47.856;12.344;2023-04-29T01:21:09;0.30;;;0.30;;
16484;SDS011;8353;47.856;12.344;2023-04-29T01:23:58;0.30;;;0.30;;
16484;SDS011;8353;47.856;12.344;2023-04-29T01:26:45;0.33;;;0.33;;
16484;SDS011;8353;47.856;12.344;2023-04-29T01:29:39;0.20;;;0.20;;
16484;SDS011;8353;47.856;12.344;2023-04-29T01:32:32;0.20;;;0.20;;
16484;SDS011;8353;47.856;12.344;2023-04-29T01:35:40;0.53;;;0.30;;
16484;SDS011;8353;47.856;12.344;2023-04-29T01:38:38;0.37;;;0.37;;
16484;SDS011;8353;47.856;12.344;2023-04-29T01:41:33;0.40;;;0.23;;
16484;SDS011;8353;47.856;12.344;2023-04-29T01:44:25;0.30;;;0.30;;
16484;SDS011;8353;47.856;12.344;2023-04-29T01:47:14;0.30;;;0.20;;
16484;SDS011;8353;47.856;12.344;2023-04-29T01:50:02;0.40;;;0.30;;
16484;SDS011;8353;47.856;12.344;2023-04-29T01:52:49;0.40;;;0.40;;
16484;SDS011;8353;47.856;12.344;2023-04-29T01:55:36;0.90;;;0.43;;
16484;SDS011;8353;47.856;12.344;2023-04-29T01:58:24;0.37;;;0.33;;
16484;SDS011;8353;47.856;12.344;2023-04-29T02:01:12;0.30;;;0.30;;
16484;SDS011;8353;47.856;12.344;2023-04-29T02:03:59;0.30;;;0.30;;
16484;SDS011;8353;47.856;12.344;2023-04-29T02:06:45;1.43;;;0.40;;
16484;SDS011;8353;47.856;12.344;2023-04-29T02:09:32;0.33;;;0.30;;
16484;SDS011;8353;47.856;12.344;2023-04-29T02:12:19;0.37;;;0.37;;
16484;SDS011;8353;47.856;12.344;2023-04-29T02:15:08;1.13;;;0.40;;
16484;SDS011;8353;47.856;12.344;2023-04-29T02:17:56;0.70;;;0.33;;
16484;SDS011;8353;47.856;12.344;2023-04-29T02:20:43;0.30;;;0.30;;
16484;SDS011;8353;47.856;12.344;2023-04-29T02:23:30;0.23;;;0.23;;
16484;SDS011;8353;47.856;12.344;2023-04-29T02:26:17;0.40;;;0.40;;
16484;SDS011;8353;47.856;12.344;2023-04-29T02:29:04;0.70;;;0.50;;
16484;SDS011;8353;47.856;12.344;2023-04-29T02:31:52;0.30;;;0.30;;
16484;SDS011;8353;47.856;12.344;2023-04-29T02:34:39;0.30;;;0.30;;
16484;SDS011;8353;47.856;12.344;2023-04-29T02:37:26;0.30;;;0.30;;
16484;SDS011;8353;47.856;12.344;2023-04-29T02:40:13;0.30;;;0.30;;
16484;SDS011;8353;47.856;12.344;2023-04-29T02:42:59;1.67;;;0.50;;
16484;SDS011;8353;47.856;12.344;2023-04-29T02:45:47;0.30;;;0.30;;
16484;SDS011;8353;47.856;12.344;2023-04-29T02:48:35;0.37;;;0.27;;
16484;SDS011;8353;47.856;12.344;2023-04-29T02:51:22;0.67;;;0.50;;
16484;SDS011;8353;47.856;12.344;2023-04-29T02:54:08;0.57;;;0.40;;
16484;SDS011;8353;47.856;12.344;2023-04-29T02:56:56;0.40;;;0.40;;
16484;SDS011;8353;47.856;12.344;2023-04-29T02:59:43;0.30;;;0.30;;
16484;SDS011;8353;47.856;12.344;2023-04-29T03:02:30;0.93;;;0.83;;
16484;SDS011;8353;47.856;12.344;2023-04-29T03:05:18;0.93;;;0.60;;
16484;SDS011;8353;47.856;12.344;2023-04-29T03:08:05;0.63;;;0.30;;
16484;SDS011;8353;47.856;12.344;2023-04-29T03:10:54;0.50;;;0.40;;
16484;SDS011;8353;47.856;12.344;2023-04-29T03:13:41;0.40;;;0.40;;
16484;SDS011;8353;47.856;12.344;2023-04-29T03:16:27;0.30;;;0.30;;
16484;SDS011;8353;47.856;12.344;2023-04-29T03:19:15;0.60;;;0.40;;
16484;SDS011;8353;47.856;12.344;2023-04-29T03:22:03;0.40;;;0.40;;
16484;SDS011;8353;47.856;12.344;2023-04-29T03:24:50;0.40;;;0.40;;
16484;SDS011;8353;47.856;12.344;2023-04-29T03:27:37;0.50;;;0.37;;
16484;SDS011;8353;47.856;12.344;2023-04-29T03:30:24;0.30;;;0.27;;
16484;SDS011;8353;47.856;12.344;2023-04-29T03:33:11;0.50;;;0.50;;
16484;SDS011;8353;47.856;12.344;2023-04-29T03:35:58;0.40;;;0.40;;
16484;SDS011;8353;47.856;12.344;2023-04-29T03:38:46;0.53;;;0.53;;
16484;SDS011;8353;47.856;12.344;2023-04-29T03:41:33;0.33;;;0.33;;
16484;SDS011;8353;47.856;12.344;2023-04-29T03:44:19;0.40;;;0.40;;
16484;SDS011;8353;47.856;12.344;2023-04-29T03:47:06;0.40;;;0.40;;
16484;SDS011;8353;47.856;12.344;2023-04-29T03:49:53;0.43;;;0.43;;
16484;SDS011;8353;47.856;12.344;2023-04-29T03:52:40;0.80;;;0.40;;
16484;SDS011;8353;47.856;12.344;2023-04-29T03:55:28;0.30;;;0.30;;
16484;SDS011;8353;47.856;12.344;2023-04-29T03:58:15;1.03;;;0.60;;
16484;SDS011;8353;47.856;12.344;2023-04-29T04:01:02;0.30;;;0.30;;
16484;SDS011;8353;47.856;12.344;2023-04-29T04:03:49;0.30;;;0.30;;
16484;SDS011;8353;47.856;12.344;2023-04-29T04:06:36;0.30;;;0.30;;
16484;SDS011;8353;47.856;12.344;2023-04-29T04:09:23;0.50;;;0.50;;
16484;SDS011;8353;47.856;12.344;2023-04-29T04:12:11;0.60;;;0.60;;
16484;SDS011;8353;47.856;12.344;2023-04-29T04:14:58;0.30;;;0.30;;
16484;SDS011;8353;47.856;12.344;2023-04-29T04:17:45;0.80;;;0.50;;
16484;SDS011;8353;47.856;12.344;2023-04-29T04:20:32;0.20;;;0.20;;
16484;SDS011;8353;47.856;12.344;2023-04-29T04:23:21;0.40;;;0.40;;
16484;SDS011;8353;47.856;12.344;2023-04-29T04:26:08;0.70;;;0.40;;
16484;SDS011;8353;47.856;12.344;2023-04-29T04:28:56;0.63;;;0.60;;
16484;SDS011;8353;47.856;12.344;2023-04-29T04:31:43;0.43;;;0.43;;
16484;SDS011;8353;47.856;12.344;2023-04-29T04:34:30;0.40;;;0.40;;
16484;SDS011;8353;47.856;12.344;2023-04-29T04:37:17;2.10;;;0.80;;
16484;SDS011;8353;47.856;12.344;2023-04-29T04:40:04;1.00;;;0.40;;
16484;SDS011;8353;47.856;12.344;2023-04-29T04:42:52;1.03;;;0.97;;
16484;SDS011;8353;47.856;12.344;2023-04-29T04:45:43;1.90;;;1.70;;
16484;SDS011;8353;47.856;12.344;2023-04-29T04:48:29;1.53;;;0.80;;
16484;SDS011;8353;47.856;12.344;2023-04-29T04:51:16;1.50;;;1.40;;
16484;SDS011;8353;47.856;12.344;2023-04-29T04:54:03;2.30;;;2.10;;
16484;SDS011;8353;47.856;12.344;2023-04-29T04:56:50;1.80;;;1.70;;
16484;SDS011;8353;47.856;12.344;2023-04-29T04:59:37;1.93;;;1.80;;
16484;SDS011;8353;47.856;12.344;2023-04-29T05:02:25;1.20;;;1.10;;
16484;SDS011;8353;47.856;12.344;2023-04-29T05:05:12;0.60;;;0.60;;
16484;SDS011;8353;47.856;12.344;2023-04-29T05:07:59;1.13;;;0.50;;
16484;SDS011;8353;47.856;12.344;2023-04-29T05:10:45;0.60;;;0.60;;
16484;SDS011;8353;47.856;12.344;2023-04-29T05:13:32;1.23;;;0.80;;
16484;SDS011;8353;47.856;12.344;2023-04-29T05:16:19;2.30;;;0.70;;
16484;SDS011;8353;47.856;12.344;2023-04-29T05:19:07;1.13;;;0.80;;
16484;SDS011;8353;47.856;12.344;2023-04-29T05:21:54;1.40;;;1.17;;
16484;SDS011;8353;47.856;12.344;2023-04-29T05:24:41;0.80;;;0.60;;
16484;SDS011;8353;47.856;12.344;2023-04-29T05:27:28;0.80;;;0.80;;
16484;SDS011;8353;47.856;12.344;2023-04-29T05:30:15;2.03;;;1.60;;
16484;SDS011;8353;47.856;12.344;2023-04-29T05:33:02;1.03;;;0.80;;
16484;SDS011;8353;47.856;12.344;2023-04-29T05:35:50;0.70;;;0.70;;
16484;SDS011;8353;47.856;12.344;2023-04-29T05:38:37;1.10;;;0.90;;
16484;SDS011;8353;47.856;12.344;2023-04-29T05:41:24;1.20;;;1.10;;
16484;SDS011;8353;47.856;12.344;2023-04-29T05:44:11;1.37;;;0.80;;
16484;SDS011;8353;47.856;12.344;2023-04-29T05:46:57;1.33;;;1.23;;
16484;SDS011;8353;47.856;12.344;2023-04-29T05:49:45;0.60;;;0.60;;
16484;SDS011;8353;47.856;12.344;2023-04-29T05:52:33;1.07;;;0.97;;
16484;SDS011;8353;47.856;12.344;2023-04-29T05:55:20;0.50;;;0.50;;
16484;SDS011;8353;47.856;12.344;2023-04-29T05:58:07;0.95;;;0.90;;
16484;SDS011;8353;47.856;12.344;2023-04-29T06:00:54;1.23;;;1.00;;
16484;SDS011;8353;47.856;12.344;2023-04-29T06:03:41;2.50;;;1.20;;
16484;SDS011;8353;47.856;12.344;2023-04-29T06:06:28;1.10;;;1.00;;
16484;SDS011;8353;47.856;12.344;2023-04-29T06:09:16;0.68;;;0.63;;
16484;SDS011;8353;47.856;12.344;2023-04-29T06:12:04;1.67;;;1.20;;
16484;SDS011;8353;47.856;12.344;2023-04-29T06:14:51;1.85;;;1.63;;
16484;SDS011;8353;47.856;12.344;2023-04-29T06:17:38;2.00;;;1.80;;
16484;SDS011;8353;47.856;12.344;2023-04-29T06:20:25;2.28;;;1.80;;
16484;SDS011;8353;47.856;12.344;2023-04-29T06:23:11;1.67;;;1.58;;
16484;SDS011;8353;47.856;12.344;2023-04-29T06:26:00;2.17;;;1.60;;
16484;SDS011;8353;47.856;12.344;2023-04-29T06:28:46;2.15;;;1.42;;
16484;SDS011;8353;47.856;12.344;2023-04-29T06:31:33;1.80;;;0.95;;
16484;SDS011;8353;47.856;12.344;2023-04-29T06:34:20;2.22;;;1.10;;
16484;SDS011;8353;47.856;12.344;2023-04-29T06:37:07;3.50;;;2.30;;
16484;SDS011;8353;47.856;12.344;2023-04-29T06:39:54;2.25;;;1.45;;
16484;SDS011;8353;47.856;12.344;2023-04-29T06:42:42;1.30;;;1.20;;
16484;SDS011;8353;47.856;12.344;2023-04-29T06:45:29;1.50;;;1.20;;
16484;SDS011;8353;47.856;12.344;2023-04-29T06:48:16;1.15;;;1.10;;
16484;SDS011;8353;47.856;12.344;2023-04-29T06:51:05;2.03;;;0.85;;
16484;SDS011;8353;47.856;12.344;2023-04-29T06:53:52;0.80;;;0.80;;
16484;SDS011;8353;47.856;12.344;2023-04-29T06:56:39;1.83;;;0.90;;
16484;SDS011;8353;47.856;12.344;2023-04-29T06:59:27;1.48;;;1.38;;
16484;SDS011;8353;47.856;12.344;2023-04-29T07:02:14;0.80;;;0.80;;
16484;SDS011;8353;47.856;12.344;2023-04-29T07:05:01;1.55;;;1.20;;
16484;SDS011;8353;47.856;12.344;2023-04-29T07:07:48;1.58;;;1.05;;
16484;SDS011;8353;47.856;12.344;2023-04-29T07:10:34;2.10;;;2.00;;
16484;SDS011;8353;47.856;12.344;2023-04-29T07:13:21;1.58;;;1.23;;
16484;SDS011;8353;47.856;12.344;2023-04-29T07:16:14;1.83;;;1.10;;
16484;SDS011;8353;47.856;12.344;2023-04-29T07:19:02;1.00;;;1.00;;
16484;SDS011;8353;47.856;12.344;2023-04-29T07:21:49;1.38;;;1.17;;
16484;SDS011;8353;47.856;12.344;2023-04-29T07:24:35;1.50;;;1.40;;
16484;SDS011;8353;47.856;12.344;2023-04-29T07:27:22;2.28;;;1.98;;
16484;SDS011;8353;47.856;12.344;2023-04-29T07:30:09;3.03;;;2.72;;
16484;SDS011;8353;47.856;12.344;2023-04-29T07:32:58;3.60;;;1.35;;
16484;SDS011;8353;47.856;12.344;2023-04-29T07:35:44;3.60;;;1.42;;
16484;SDS011;8353;47.856;12.344;2023-04-29T07:38:31;1.20;;;1.10;;
16484;SDS011;8353;47.856;12.344;2023-04-29T07:41:18;1.20;;;0.95;;
16484;SDS011;8353;47.856;12.344;2023-04-29T07:44:05;0.70;;;0.70;;
16484;SDS011;8353;47.856;12.344;2023-04-29T07:46:52;1.27;;;1.17;;
16484;SDS011;8353;47.856;12.344;2023-04-29T07:49:40;2.63;;;1.50;;
16484;SDS011;8353;47.856;12.344;2023-04-29T07:52:27;2.97;;;2.65;;
16484;SDS011;8353;47.856;12.344;2023-04-29T07:55:14;2.33;;;2.13;;
16484;SDS011;8353;47.856;12.344;2023-04-29T07:58:01;1.60;;;1.50;;
16484;SDS011;8353;47.856;12.344;2023-04-29T08:00:48;2.40;;;1.63;;
16484;SDS011;8353;47.856;12.344;2023-04-29T08:03:35;5.75;;;2.20;;
16484;SDS011;8353;47.856;12.344;2023-04-29T08:06:23;1.70;;;1.30;;
16484;SDS011;8353;47.856;12.344;2023-04-29T08:09:11;1.73;;;1.50;;
16484;SDS011;8353;47.856;12.344;2023-04-29T08:11:58;2.45;;;1.50;;
16484;SDS011;8353;47.856;12.344;2023-04-29T08:14:47;1.67;;;0.90;;
16484;SDS011;8353;47.856;12.344;2023-04-29T08:17:34;1.75;;;1.10;;
16484;SDS011;8353;47.856;12.344;2023-04-29T08:20:20;2.75;;;1.98;;
16484;SDS011;8353;47.856;12.344;2023-04-29T08:23:09;1.58;;;0.82;;
16484;SDS011;8353;47.856;12.344;2023-04-29T08:25:56;2.50;;;1.05;;
16484;SDS011;8353;47.856;12.344;2023-04-29T08:28:42;1.85;;;1.55;;
16484;SDS011;8353;47.856;12.344;2023-04-29T08:31:29;5.10;;;1.20;;
16484;SDS011;8353;47.856;12.344;2023-04-29T08:34:16;2.28;;;1.17;;
16484;SDS011;8353;47.856;12.344;2023-04-29T08:37:03;3.63;;;1.10;;
16484;SDS011;8353;47.856;12.344;2023-04-29T08:39:52;4.05;;;1.35;;
16484;SDS011;8353;47.856;12.344;2023-04-29T08:42:49;1.30;;;1.05;;
16484;SDS011;8353;47.856;12.344;2023-04-29T08:45:36;3.08;;;1.00;;
16484;SDS011;8353;47.856;12.344;2023-04-29T08:48:24;1.00;;;0.82;;
16484;SDS011;8353;47.856;12.344;2023-04-29T08:51:12;1.50;;;1.15;;
16484;SDS011;8353;47.856;12.344;2023-04-29T08:53:59;1.65;;;1.27;;
16484;SDS011;8353;47.856;12.344;2023-04-29T08:56:47;1.92;;;1.30;;
16484;SDS011;8353;47.856;12.344;2023-04-29T08:59:37;0.90;;;0.77;;
16484;SDS011;8353;47.856;12.344;2023-04-29T09:02:24;1.02;;;0.93;;
16484;SDS011;8353;47.856;12.344;2023-04-29T09:05:12;1.52;;;1.00;;
16484;SDS011;8353;47.856;12.344;2023-04-29T09:07:59;1.83;;;1.02;;
16484;SDS011;8353;47.856;12.344;2023-04-29T09:10:50;0.82;;;0.82;;
16484;SDS011;8353;47.856;12.344;2023-04-29T09:13:39;3.33;;;1.73;;
16484;SDS011;8353;47.856;12.344;2023-04-29T09:16:26;2.90;;;1.08;;
16484;SDS011;8353;47.856;12.344;2023-04-29T09:19:26;1.17;;;1.08;;
16484;SDS011;8353;47.856;12.344;2023-04-29T09:22:14;0.95;;;0.65;;
16484;SDS011;8353;47.856;12.344;2023-04-29T09:25:10;1.17;;;0.80;;
16484;SDS011;8353;47.856;12.344;2023-04-29T09:27:58;2.25;;;1.15;;
16484;SDS011;8353;47.856;12.344;2023-04-29T09:31:02;1.20;;;1.02;;
16484;SDS011;8353;47.856;12.344;2023-04-29T09:33:51;1.70;;;1.10;;
16484;SDS011;8353;47.856;12.344;2023-04-29T09:36:39;1.70;;;1.00;;
16484;SDS011;8353;47.856;12.344;2023-04-29T09:39:37;1.40;;;0.90;;
16484;SDS011;8353;47.856;12.344;2023-04-29T09:42:25;1.88;;;0.80;;
16484;SDS011;8353;47.856;12.344;2023-04-29T09:45:11;1.27;;;0.90;;
16484;SDS011;8353;47.856;12.344;2023-04-29T09:48:04;1.50;;;1.30;;
16484;SDS011;8353;47.856;12.344;2023-04-29T09:50:58;1.40;;;1.30;;
16484;SDS011;8353;47.856;12.344;2023-04-29T09:53:49;1.40;;;1.00;;
16484;SDS011;8353;47.856;12.344;2023-04-29T09:56:46;1.98;;;1.60;;
16484;SDS011;8353;47.856;12.344;2023-04-29T09:59:35;0.77;;;0.77;;
16484;SDS011;8353;47.856;12.344;2023-04-29T10:02:23;1.33;;;0.90;;
16484;SDS011;8353;47.856;12.344;2023-04-29T10:05:14;2.75;;;1.02;;
16484;SDS011;8353;47.856;12.344;2023-04-29T10:08:01;1.92;;;1.10;;
16484;SDS011;8353;47.856;12.344;2023-04-29T10:10:48;1.10;;;1.00;;
16484;SDS011;8353;47.856;12.344;2023-04-29T10:13:41;1.85;;;1.20;;
16484;SDS011;8353;47.856;12.344;2023-04-29T10:16:29;5.53;;;3.05;;
16484;SDS011;8353;47.856;12.344;2023-04-29T10:19:24;5.47;;;3.25;;
16484;SDS011;8353;47.856;12.344;2023-04-29T10:22:16;4.30;;;1.52;;
16484;SDS011;8353;47.856;12.344;2023-04-29T10:25:12;5.65;;;3.92;;
16484;SDS011;8353;47.856;12.344;2023-04-29T10:28:01;3.25;;;2.40;;
16484;SDS011;8353;47.856;12.344;2023-04-29T10:30:50;3.72;;;1.92;;
16484;SDS011;8353;47.856;12.344;2023-04-29T10:33:39;2.33;;;1.80;;
16484;SDS011;8353;47.856;12.344;2023-04-29T10:36:30;2.78;;;1.90;;
16484;SDS011;8353;47.856;12.344;2023-04-29T10:39:23;1.75;;;1.38;;
16484;SDS011;8353;47.856;12.344;2023-04-29T10:42:19;1.90;;;1.55;;
16484;SDS011;8353;47.856;12.344;2023-04-29T10:45:16;2.08;;;1.55;;
16484;SDS011;8353;47.856;12.344;2023-04-29T10:48:10;1.60;;;1.20;;
16484;SDS011;8353;47.856;12.344;2023-04-29T10:51:01;1.70;;;1.40;;
16484;SDS011;8353;47.856;12.344;2023-04-29T10:53:58;3.17;;;1.67;;
16484;SDS011;8353;47.856;12.344;2023-04-29T10:56:48;2.25;;;1.42;;
16484;SDS011;8353;47.856;12.344;2023-04-29T10:59:45;2.17;;;1.80;;
16484;SDS011;8353;47.856;12.344;2023-04-29T11:02:32;1.77;;;1.50;;
16484;SDS011;8353;47.856;12.344;2023-04-29T11:05:28;1.83;;;1.27;;
16484;SDS011;8353;47.856;12.344;2023-04-29T11:08:18;1.77;;;1.27;;
16484;SDS011;8353;47.856;12.344;2023-04-29T11:11:08;1.30;;;1.20;;
16484;SDS011;8353;47.856;12.344;2023-04-29T11:13:56;3.70;;;1.88;;
16484;SDS011;8353;47.856;12.344;2023-04-29T11:16:46;2.28;;;1.50;;
16484;SDS011;8353;47.856;12.344;2023-04-29T11:19:35;1.27;;;1.05;;
16484;SDS011;8353;47.856;12.344;2023-04-29T11:22:25;2.95;;;1.25;;
16484;SDS011;8353;47.856;12.344;2023-04-29T11:25:14;1.13;;;0.90;;
16484;SDS011;8353;47.856;12.344;2023-04-29T11:28:01;2.15;;;0.90;;
16484;SDS011;8353;47.856;12.344;2023-04-29T11:30:50;1.83;;;0.82;;
16484;SDS011;8353;47.856;12.344;2023-04-29T11:33:38;1.10;;;0.90;;
16484;SDS011;8353;47.856;12.344;2023-04-29T11:36:25;1.83;;;0.90;;
16484;SDS011;8353;47.856;12.344;2023-04-29T11:39:12;1.55;;;1.08;;
16484;SDS011;8353;47.856;12.344;2023-04-29T11:42:03;2.63;;;1.10;;
16484;SDS011;8353;47.856;12.344;2023-04-29T11:44:50;1.30;;;1.20;;
16484;SDS011;8353;47.856;12.344;2023-04-29T11:47:45;1.52;;;1.30;;
16484;SDS011;8353;47.856;12.344;2023-04-29T11:50:33;1.48;;;0.85;;
16484;SDS011;8353;47.856;12.344;2023-04-29T11:53:20;0.88;;;0.77;;
16484;SDS011;8353;47.856;12.344;2023-04-29T11:56:09;1.50;;;0.90;;
16484;SDS011;8353;47.856;12.344;2023-04-29T11:58:56;1.00;;;0.80;;
16484;SDS011;8353;47.856;12.344;2023-04-29T12:01:45;0.73;;;0.70;;
16484;SDS011;8353;47.856;12.344;2023-04-29T12:04:33;1.50;;;1.08;;
16484;SDS011;8353;47.856;12.344;2023-04-29T12:07:29;2.03;;;0.88;;
16484;SDS011;8353;47.856;12.344;2023-04-29T12:10:16;3.60;;;2.17;;
16484;SDS011;8353;47.856;12.344;2023-04-29T12:13:03;0.82;;;0.80;;
16484;SDS011;8353;47.856;12.344;2023-04-29T12:15:52;0.80;;;0.80;;
16484;SDS011;8353;47.856;12.344;2023-04-29T12:18:39;1.00;;;0.90;;
16484;SDS011;8353;47.856;12.344;2023-04-29T12:21:28;1.15;;;1.00;;
16484;SDS011;8353;47.856;12.344;2023-04-29T12:24:16;1.23;;;1.00;;
16484;SDS011;8353;47.856;12.344;2023-04-29T12:27:03;1.00;;;0.90;;
16484;SDS011;8353;47.856;12.344;2023-04-29T12:29:53;1.55;;;1.40;;
16484;SDS011;8353;47.856;12.344;2023-04-29T12:32:39;1.30;;;0.80;;
16484;SDS011;8353;47.856;12.344;2023-04-29T12:35:26;1.58;;;1.38;;
16484;SDS011;8353;47.856;12.344;2023-04-29T12:38:16;1.48;;;1.13;;
16484;SDS011;8353;47.856;12.344;2023-04-29T12:41:06;1.02;;;0.80;;
16484;SDS011;8353;47.856;12.344;2023-04-29T12:43:52;1.50;;;1.00;;
16484;SDS011;8353;47.856;12.344;2023-04-29T12:46:40;2.15;;;0.73;;
16484;SDS011;8353;47.856;12.344;2023-04-29T12:49:27;2.42;;;1.10;;
16484;SDS011;8353;47.856;12.344;2023-04-29T12:52:14;3.97;;;1.40;;
16484;SDS011;8353;47.856;12.344;2023-04-29T12:55:02;1.50;;;1.40;;
16484;SDS011;8353;47.856;12.344;2023-04-29T12:57:50;1.63;;;1.50;;
16484;SDS011;8353;47.856;12.344;2023-04-29T13:00:37;1.55;;;1.17;;
16484;SDS011;8353;47.856;12.344;2023-04-29T13:03:25;1.52;;;1.30;;
16484;SDS011;8353;47.856;12.344;2023-04-29T13:06:12;1.10;;;1.00;;
16484;SDS011;8353;47.856;12.344;2023-04-29T13:08:59;1.88;;;1.42;;
16484;SDS011;8353;47.856;12.344;2023-04-29T13:11:47;1.63;;;1.05;;
16484;SDS011;8353;47.856;12.344;2023-04-29T13:14:34;1.80;;;1.50;;
16484;SDS011;8353;47.856;12.344;2023-04-29T13:17:21;2.15;;;1.40;;
16484;SDS011;8353;47.856;12.344;2023-04-29T13:20:08;1.55;;;0.98;;
16484;SDS011;8353;47.856;12.344;2023-04-29T13:22:55;2.15;;;1.40;;
16484;SDS011;8353;47.856;12.344;2023-04-29T13:25:42;2.30;;;1.60;;
16484;SDS011;8353;47.856;12.344;2023-04-29T13:28:30;1.10;;;1.00;;
16484;SDS011;8353;47.856;12.344;2023-04-29T13:31:17;1.35;;;1.10;;
16484;SDS011;8353;47.856;12.344;2023-04-29T13:34:05;2.63;;;1.30;;
16484;SDS011;8353;47.856;12.344;2023-04-29T13:36:51;1.67;;;1.00;;
16484;SDS011;8353;47.856;12.344;2023-04-29T13:39:38;2.30;;;1.40;;
16484;SDS011;8353;47.856;12.344;2023-04-29T13:42:25;2.00;;;1.67;;
16484;SDS011;8353;47.856;12.344;2023-04-29T13:45:13;1.42;;;1.10;;
16484;SDS011;8353;47.856;12.344;2023-04-29T13:48:01;1.60;;;1.50;;
16484;SDS011;8353;47.856;12.344;2023-04-29T13:50:50;1.50;;;1.38;;
16484;SDS011;8353;47.856;12.344;2023-04-29T13:53:37;1.95;;;1.60;;
16484;SDS011;8353;47.856;12.344;2023-04-29T13:56:23;2.50;;;1.90;;
16484;SDS011;8353;47.856;12.344;2023-04-29T13:59:10;1.52;;;1.30;;
16484;SDS011;8353;47.856;12.344;2023-04-29T14:01:58;2.55;;;1.63;;
16484;SDS011;8353;47.856;12.344;2023-04-29T14:04:46;1.00;;;0.98;;
16484;SDS011;8353;47.856;12.344;2023-04-29T14:07:34;2.10;;;1.90;;
16484;SDS011;8353;47.856;12.344;2023-04-29T14:10:21;1.30;;;1.02;;
16484;SDS011;8353;47.856;12.344;2023-04-29T14:13:08;1.33;;;0.90;;
16484;SDS011;8353;47.856;12.344;2023-04-29T14:15:56;0.90;;;0.90;;
16484;SDS011;8353;47.856;12.344;2023-04-29T14:18:45;2.25;;;1.60;;
16484;SDS011;8353;47.856;12.344;2023-04-29T14:21:32;1.48;;;1.00;;
16484;SDS011;8353;47.856;12.344;2023-04-29T14:24:19;1.50;;;1.40;;
16484;SDS011;8353;47.856;12.344;2023-04-29T14:27:06;1.13;;;0.93;;
16484;SDS011;8353;47.856;12.344;2023-04-29T14:29:53;2.13;;;1.02;;
16484;SDS011;8353;47.856;12.344;2023-04-29T14:32:40;1.13;;;0.90;;
16484;SDS011;8353;47.856;12.344;2023-04-29T14:35:28;1.92;;;1.80;;
16484;SDS011;8353;47.856;12.344;2023-04-29T14:38:15;3.17;;;1.20;;
16484;SDS011;8353;47.856;12.344;2023-04-29T14:41:02;2.00;;;1.90;;
16484;SDS011;8353;47.856;12.344;2023-04-29T14:43:49;2.00;;;1.48;;
16484;SDS011;8353;47.856;12.344;2023-04-29T14:46:36;2.38;;;1.73;;
16484;SDS011;8353;47.856;12.344;2023-04-29T14:49:23;2.58;;;1.45;;
16484;SDS011;8353;47.856;12.344;2023-04-29T14:52:12;1.67;;;1.55;;
16484;SDS011;8353;47.856;12.344;2023-04-29T14:54:59;2.60;;;1.50;;
16484;SDS011;8353;47.856;12.344;2023-04-29T14:57:46;1.75;;;1.45;;
16484;SDS011;8353;47.856;12.344;2023-04-29T15:00:33;3.78;;;3.03;;
16484;SDS011;8353;47.856;12.344;2023-04-29T15:03:24;1.23;;;1.13;;
16484;SDS011;8353;47.856;12.344;2023-04-29T15:06:10;1.98;;;1.58;;
16484;SDS011;8353;47.856;12.344;2023-04-29T15:08:59;3.67;;;1.95;;
16484;SDS011;8353;47.856;12.344;2023-04-29T15:11:46;1.73;;;1.60;;
16484;SDS011;8353;47.856;12.344;2023-04-29T15:14:33;3.15;;;1.83;;
16484;SDS011;8353;47.856;12.344;2023-04-29T15:17:20;2.08;;;1.15;;
16484;SDS011;8353;47.856;12.344;2023-04-29T15:20:07;1.20;;;1.10;;
16484;SDS011;8353;47.856;12.344;2023-04-29T15:22:55;4.80;;;2.25;;
16484;SDS011;8353;47.856;12.344;2023-04-29T15:25:43;1.17;;;1.08;;
16484;SDS011;8353;47.856;12.344;2023-04-29T15:28:31;2.67;;;1.77;;
16484;SDS011;8353;47.856;12.344;2023-04-29T15:31:18;2.15;;;1.52;;
16484;SDS011;8353;47.856;12.344;2023-04-29T15:34:05;4.53;;;1.45;;
16484;SDS011;8353;47.856;12.344;2023-04-29T15:36:52;2.42;;;1.33;;
16484;SDS011;8353;47.856;12.344;2023-04-29T15:39:40;2.13;;;1.40;;
16484;SDS011;8353;47.856;12.344;2023-04-29T15:42:28;1.88;;;1.30;;
16484;SDS011;8353;47.856;12.344;2023-04-29T15:45:15;9.95;;;5.65;;
16484;SDS011;8353;47.856;12.344;2023-04-29T15:48:02;2.92;;;2.30;;
16484;SDS011;8353;47.856;12.344;2023-04-29T15:50:49;2.33;;;1.30;;
16484;SDS011;8353;47.856;12.344;2023-04-29T15:53:37;2.45;;;1.00;;
16484;SDS011;8353;47.856;12.344;2023-04-29T15:56:24;2.97;;;1.40;;
16484;SDS011;8353;47.856;12.344;2023-04-29T15:59:12;1.98;;;1.20;;
16484;SDS011;8353;47.856;12.344;2023-04-29T16:01:59;1.10;;;0.85;;
16484;SDS011;8353;47.856;12.344;2023-04-29T16:04:47;2.05;;;1.30;;
16484;SDS011;8353;47.856;12.344;2023-04-29T16:07:34;1.55;;;0.90;;
16484;SDS011;8353;47.856;12.344;2023-04-29T16:10:20;3.17;;;2.38;;
16484;SDS011;8353;47.856;12.344;2023-04-29T16:13:07;1.27;;;1.10;;
16484;SDS011;8353;47.856;12.344;2023-04-29T16:15:57;2.30;;;1.48;;
16484;SDS011;8353;47.856;12.344;2023-04-29T16:18:45;1.27;;;1.17;;
16484;SDS011;8353;47.856;12.344;2023-04-29T16:21:32;1.17;;;1.08;;
16484;SDS011;8353;47.856;12.344;2023-04-29T16:24:19;2.88;;;1.00;;
16484;SDS011;8353;47.856;12.344;2023-04-29T16:27:06;1.17;;;1.08;;
16484;SDS011;8353;47.856;12.344;2023-04-29T16:29:52;1.70;;;1.10;;
16484;SDS011;8353;47.856;12.344;2023-04-29T16:32:41;2.53;;;1.83;;
16484;SDS011;8353;47.856;12.344;2023-04-29T16:35:28;1.42;;;1.08;;
16484;SDS011;8353;47.856;12.344;2023-04-29T16:38:16;1.50;;;1.40;;
16484;SDS011;8353;47.856;12.344;2023-04-29T16:41:02;1.98;;;1.20;;
16484;SDS011;8353;47.856;12.344;2023-04-29T16:43:50;1.73;;;1.40;;
16484;SDS011;8353;47.856;12.344;2023-04-29T16:46:37;1.65;;;1.30;;
16484;SDS011;8353;47.856;12.344;2023-04-29T16:49:26;2.35;;;1.75;;
16484;SDS011;8353;47.856;12.344;2023-04-29T16:52:13;1.45;;;1.30;;
16484;SDS011;8353;47.856;12.344;2023-04-29T16:54:59;1.48;;;1.30;;